Time;durP1;ratioP1;P1;durP2;ratioP2;P2;SDS_P1;SDS_P2;PMS_P1;PMS_P2;Temp;Humidity;BMP_temperature;BMP_pressure;BME280_temperature;BME280_humidity;BME280_pressure;Samples;Min_cycle;Max_cycle;Signal;HPM_P1;HPM_P2
2022/05/28 00:00:56;;;;;;;21.80;19.55;;;;;;;10.01;100.00;98826.31;2066610;28;20605;-68
2022/05/28 00:01:58;;;;;;;23.73;19.17;;;;;;;9.98;100.00;98835.69;2059642;28;20687;-69
2022/05/28 00:02:59;;;;;;;22.10;19.98;;;;;;;10.02;100.00;98834.00;2066232;28;20208;-69
2022/05/28 00:04:04;;;;;;;21.60;19.40;;;;;;;10.03;100.00;98835.59;2066333;28;20276;-68
2022/05/28 00:05:07;;;;;;;21.15;19.25;;;;;;;9.98;100.00;98824.22;2067097;28;20180;-69
2022/05/28 00:06:10;;;;;;;22.20;19.77;;;;;;;9.97;100.00;98826.09;2066625;28;20522;-69
2022/05/28 00:07:12;;;;;;;21.73;19.60;;;;;;;9.90;100.00;98833.72;2066334;28;20664;-68
2022/05/28 00:08:15;;;;;;;22.10;19.83;;;;;;;9.87;100.00;98824.44;2066462;28;20197;-69
2022/05/28 00:09:16;;;;;;;21.88;19.58;;;;;;;9.82;100.00;98829.09;2066726;28;20643;-69
2022/05/28 00:10:19;;;;;;;24.70;19.67;;;;;;;9.78;100.00;98825.44;2066989;28;20626;-70
2022/05/28 00:11:22;;;;;;;21.00;18.90;;;;;;;9.76;100.00;98830.28;2066329;28;20196;-70
2022/05/28 00:12:24;;;;;;;21.70;19.65;;;;;;;9.76;100.00;98827.59;2066393;28;20185;-70
2022/05/28 00:13:27;;;;;;;24.90;19.67;;;;;;;9.81;100.00;98832.81;2066265;28;20255;-70
2022/05/28 00:14:28;;;;;;;20.88;18.77;;;;;;;9.82;100.00;98837.88;2066383;28;20739;-71
2022/05/28 00:15:31;;;;;;;21.75;19.77;;;;;;;9.80;100.00;98849.91;2066840;28;20592;-71
2022/05/28 00:16:33;;;;;;;22.10;19.83;;;;;;;9.75;100.00;98829.47;2066281;28;20200;-70
2022/05/28 00:17:34;;;;;;;22.15;20.05;;;;;;;9.78;100.00;98836.09;2066324;28;20735;-71
2022/05/28 00:18:38;;;;;;;22.85;19.83;;;;;;;9.75;100.00;98845.47;2067135;28;20224;-71
2022/05/28 00:19:39;;;;;;;22.90;20.60;;;;;;;9.71;100.00;98836.47;2066853;28;20193;-71
2022/05/28 00:20:45;;;;;;;22.30;19.90;;;;;;;9.66;100.00;98846.44;2067086;28;20247;-71
2022/05/28 00:21:49;;;;;;;23.23;20.80;;;;;;;9.70;100.00;98836.78;2066753;28;20248;-71
2022/05/28 00:22:51;;;;;;;23.35;21.08;;;;;;;9.66;100.00;98841.13;2066418;28;20193;-71
2022/05/28 00:23:51;;;;;;;23.83;20.90;;;;;;;9.69;100.00;98853.84;2066369;28;20655;-70
2022/05/28 00:24:53;;;;;;;25.50;21.40;;;;;;;9.62;100.00;98844.34;2066810;28;20597;-70
2022/05/28 00:25:54;;;;;;;25.23;20.80;;;;;;;9.62;100.00;98840.91;2066851;28;20676;-71
2022/05/28 00:26:56;;;;;;;26.97;20.30;;;;;;;9.66;100.00;98838.47;2066425;28;20559;-71
2022/05/28 00:27:58;;;;;;;23.30;20.17;;;;;;;9.64;100.00;98846.72;2066150;28;20201;-71
2022/05/28 00:29:02;;;;;;;22.83;20.35;;;;;;;9.62;100.00;98838.25;2066127;28;20208;-71
2022/05/28 00:30:05;;;;;;;25.73;20.58;;;;;;;9.57;100.00;98841.03;2066173;28;20679;-71
2022/05/28 00:31:07;;;;;;;22.02;19.92;;;;;;;9.66;100.00;98839.25;2066735;28;20220;-71
2022/05/28 00:32:09;;;;;;;23.08;20.67;;;;;;;9.62;100.00;98832.91;2066129;28;20699;-70
2022/05/28 00:33:10;;;;;;;25.45;20.52;;;;;;;9.65;100.00;98831.56;2066279;28;20695;-71
2022/05/28 00:34:12;;;;;;;22.50;20.20;;;;;;;9.67;100.00;98834.72;2066801;28;20527;-71
2022/05/28 00:35:15;;;;;;;24.55;20.20;;;;;;;9.65;100.00;98834.22;2066658;28;20196;-70
2022/05/28 00:36:25;;;;;;;27.45;20.98;;;;;;;9.59;100.00;98831.63;2066274;28;20225;-71
2022/05/28 00:37:26;;;;;;;23.83;20.85;;;;;;;9.61;100.00;98826.81;2066137;28;20255;-71
2022/05/28 00:38:28;;;;;;;27.70;21.37;;;;;;;9.65;100.00;98831.56;2066061;28;20196;-70
2022/05/28 00:39:29;;;;;;;28.83;22.02;;;;;;;9.65;100.00;98827.03;2066144;28;20710;-71
2022/05/28 00:40:31;;;;;;;25.93;21.33;;;;;;;9.61;100.00;98837.47;2066734;28;20627;-70
2022/05/28 00:41:34;;;;;;;25.77;21.50;;;;;;;9.55;100.00;98833.31;2066702;28;20197;-70
2022/05/28 00:42:39;;;;;;;23.80;20.50;;;;;;;9.52;100.00;98825.91;2066674;28;20275;-70
2022/05/28 00:43:42;;;;;;;26.13;20.63;;;;;;;9.48;100.00;98826.81;2066383;28;20161;-71
2022/05/28 00:44:44;;;;;;;28.75;21.20;;;;;;;9.48;100.00;98829.47;2066022;28;20196;-70
2022/05/28 00:45:46;;;;;;;25.98;20.67;;;;;;;9.47;100.00;98820.69;2066126;28;20189;-70
2022/05/28 00:46:56;;;;;;;30.15;20.70;;;;;;;9.51;100.00;98813.69;2066774;28;20185;-70
2022/05/28 00:48:02;;;;;;;38.55;22.25;;;;;;;9.52;100.00;98815.25;2066732;28;20185;-70
2022/05/28 00:49:06;;;;;;;30.15;21.63;;;;;;;9.51;100.00;98823.53;2066620;28;20173;-70
2022/05/28 00:50:09;;;;;;;27.40;21.75;;;;;;;9.51;100.00;98823.53;2066662;28;20193;-70
2022/05/28 00:51:14;;;;;;;27.85;21.73;;;;;;;9.49;100.00;98823.84;2066075;28;20209;-70
2022/05/28 00:52:18;;;;;;;32.90;22.30;;;;;;;9.53;100.00;98826.69;2066675;28;20227;-70
2022/05/28 00:53:19;;;;;;;27.35;21.83;;;;;;;9.54;100.00;98812.28;2066676;28;20201;-70
2022/05/28 00:54:21;;;;;;;27.38;22.65;;;;;;;9.56;100.00;98812.81;2065961;28;20193;-71
2022/05/28 00:55:24;;;;;;;32.08;21.70;;;;;;;9.50;100.00;98812.09;2058122;28;20201;-70
2022/05/28 00:56:27;;;;;;;29.52;21.10;;;;;;;9.52;100.00;98817.13;2065908;28;20200;-70
2022/05/28 00:57:30;;;;;;;30.67;21.85;;;;;;;9.49;100.00;98813.19;2066693;28;20201;-71
2022/05/28 00:58:31;;;;;;;23.50;20.40;;;;;;;9.52;100.00;98814.47;2066485;28;20243;-70
2022/05/28 00:59:32;;;;;;;26.27;21.13;;;;;;;9.50;100.00;98819.31;2065872;28;20591;-70
2022/05/28 01:00:34;;;;;;;25.65;20.95;;;;;;;9.51;100.00;98815.56;2066191;28;20193;-70
2022/05/28 01:01:41;;;;;;;30.15;21.25;;;;;;;9.48;100.00;98819.59;2066676;28;20190;-70
2022/05/28 01:02:51;;;;;;;33.75;21.42;;;;;;;9.53;100.00;98819.50;2066612;28;20173;-70
2022/05/28 01:04:04;;;;;;;23.08;19.88;;;;;;;9.48;100.00;98811.63;2066636;28;20177;-70
2022/05/28 01:05:09;;;;;;;28.23;20.02;;;;;;;9.50;100.00;98811.31;2066674;28;20675;-70
2022/05/28 01:06:17;;;;;;;24.80;20.98;;;;;;;9.47;100.00;98810.03;2065846;28;20239;-70
2022/05/28 01:07:26;;;;;;;24.73;20.13;;;;;;;9.45;100.00;98806.84;2065029;28;20201;-70
2022/05/28 01:08:37;;;;;;;36.28;22.08;;;;;;;9.56;100.00;98813.59;2065855;28;20678;-70
2022/05/28 01:09:44;;;;;;;27.90;20.95;;;;;;;9.56;100.00;98812.81;2066166;28;20224;-70
2022/05/28 01:10:52;;;;;;;26.33;20.95;;;;;;;9.59;100.00;98806.88;2066489;28;20185;-70
2022/05/28 01:12:04;;;;;;;26.65;21.92;;;;;;;9.56;100.00;98815.47;2066704;28;20177;-70
2022/05/28 01:13:09;;;;;;;27.52;20.13;;;;;;;9.60;100.00;98816.44;2065844;28;20190;-70
2022/05/28 01:14:15;;;;;;;23.98;21.33;;;;;;;9.54;100.00;98810.41;2065994;28;20192;-70
2022/05/28 01:15:20;;;;;;;24.75;21.38;;;;;;;9.54;100.00;98798.97;2066672;28;20174;-70
2022/05/28 01:16:24;;;;;;;23.50;20.67;;;;;;;9.55;100.00;98795.22;2066619;28;20184;-70
2022/05/28 01:17:31;;;;;;;26.05;20.63;;;;;;;9.51;100.00;98805.69;2065778;28;20197;-70
2022/05/28 01:18:34;;;;;;;26.05;20.88;;;;;;;9.51;100.00;98805.69;2065916;28;20215;-71
2022/05/28 01:19:43;;;;;;;26.38;21.33;;;;;;;9.53;100.00;98805.38;2066591;28;20628;-70
2022/05/28 01:20:48;;;;;;;28.88;21.80;;;;;;;9.52;100.00;98809.94;2066456;28;20208;-70
2022/05/28 01:21:54;;;;;;;31.75;21.20;;;;;;;9.47;100.00;98809.22;2066265;28;20224;-70
2022/05/28 01:23:08;;;;;;;25.92;20.85;;;;;;;9.49;100.00;98809.75;2066449;28;20180;-70
2022/05/28 01:24:19;;;;;;;24.10;20.48;;;;;;;9.45;100.00;98806.84;2066524;28;20184;-70
2022/05/28 01:25:26;;;;;;;31.17;21.67;;;;;;;9.44;100.00;98801.84;2066568;28;20268;-70
2022/05/28 01:26:36;;;;;;;28.05;21.65;;;;;;;9.38;100.00;98806.44;2066492;28;20224;-71
2022/05/28 01:27:42;;;;;;;26.05;21.60;;;;;;;9.49;100.00;98810.53;2065640;28;20208;-70
2022/05/28 01:28:46;;;;;;;31.77;21.02;;;;;;;9.49;100.00;98804.41;2066033;28;20185;-70
2022/05/28 01:29:50;;;;;;;28.15;21.23;;;;;;;9.45;100.00;98806.84;2065288;28;20228;-70
2022/05/28 01:30:54;;;;;;;25.83;20.42;;;;;;;9.40;100.00;98811.50;2065650;28;20707;-71
2022/05/28 01:31:56;;;;;;;30.10;23.00;;;;;;;9.33;100.00;98804.69;2066484;28;20192;-70
2022/05/28 01:32:59;;;;;;;21.88;19.13;;;;;;;9.37;100.00;98807.53;2066334;28;20188;-71
2022/05/28 01:34:03;;;;;;;23.58;20.05;;;;;;;9.40;100.00;98809.63;2066502;28;20189;-71
2022/05/28 01:35:07;;;;;;;26.58;20.73;;;;;;;9.35;100.00;98807.03;2066270;28;20651;-70
2022/05/28 01:36:10;;;;;;;23.10;20.30;;;;;;;9.32;100.00;98807.66;2065882;28;20212;-71
2022/05/28 01:37:12;;;;;;;23.63;19.25;;;;;;;9.37;100.00;98798.75;2066334;28;20196;-70
2022/05/28 01:38:13;;;;;;;22.10;18.10;;;;;;;9.28;100.00;98806.63;2066354;28;20189;-70
2022/05/28 01:39:16;;;;;;;22.67;19.87;;;;;;;9.25;100.00;98807.22;2065564;28;20236;-70
2022/05/28 01:40:19;;;;;;;25.92;18.92;;;;;;;9.25;100.00;98815.22;2065691;28;20197;-70
2022/05/28 01:41:21;;;;;;;21.80;19.55;;;;;;;9.18;100.00;98812.94;2066350;28;20267;-70
2022/05/28 01:42:22;;;;;;;21.77;19.38;;;;;;;9.16;100.00;98811.66;2065459;28;20259;-70
2022/05/28 01:43:27;;;;;;;23.08;18.90;;;;;;;9.10;100.00;98800.28;2065546;28;20239;-70
2022/05/28 01:44:30;;;;;;;25.33;18.70;;;;;;;9.03;100.00;98798.03;2065650;28;20617;-70
2022/05/28 01:45:33;;;;;;;24.33;20.00;;;;;;;9.09;100.00;98800.59;2065623;28;20204;-70
2022/05/28 01:46:34;;;;;;;21.55;19.48;;;;;;;9.02;100.00;98795.63;2065592;28;20212;-70
2022/05/28 01:47:36;;;;;;;22.15;19.15;;;;;;;8.99;100.00;98788.25;2065979;28;20569;-70
2022/05/28 01:48:37;;;;;;;21.58;19.23;;;;;;;8.96;100.00;98794.16;2065545;28;20682;-71
2022/05/28 01:49:49;;;;;;;21.02;19.02;;;;;;;8.92;100.00;98795.81;2065570;28;20197;-70
2022/05/28 01:50:53;;;;;;;21.38;18.77;;;;;;;8.88;100.00;98792.94;2066218;28;20694;-70
2022/05/28 01:51:58;;;;;;;21.30;18.90;;;;;;;8.87;100.00;98796.69;2065117;28;20221;-70
2022/05/28 01:53:02;;;;;;;20.77;18.52;;;;;;;8.86;100.00;98783.66;2065790;28;20216;-70
2022/05/28 01:54:11;;;;;;;21.20;18.95;;;;;;;8.89;100.00;98794.53;2066126;28;20243;-70
2022/05/28 01:55:13;;;;;;;20.45;18.40;;;;;;;8.95;100.00;98798.69;2066170;28;20185;-70
2022/05/28 01:56:18;;;;;;;20.77;18.45;;;;;;;8.95;100.00;98798.69;2065404;28;20216;-70
2022/05/28 01:57:19;;;;;;;22.17;18.90;;;;;;;8.89;100.00;98797.19;2057803;28;20648;-70
2022/05/28 01:58:21;;;;;;;21.02;18.73;;;;;;;8.92;100.00;98793.94;2065735;28;20268;-70
2022/05/28 01:59:25;;;;;;;22.33;19.02;;;;;;;8.87;100.00;98793.25;2066133;28;20200;-70
2022/05/28 02:00:27;;;;;;;24.73;19.63;;;;;;;8.88;100.00;98789.50;2065421;28;20632;-70
2022/05/28 02:01:28;;;;;;;21.33;19.08;;;;;;;8.86;100.00;98789.81;2057464;28;20700;-70
2022/05/28 02:02:30;;;;;;;21.90;19.60;;;;;;;8.95;100.00;98800.56;2065643;28;20634;-70
2022/05/28 02:03:36;;;;;;;20.60;18.63;;;;;;;8.97;100.00;98796.53;2066094;28;20189;-70
2022/05/28 02:04:40;;;;;;;19.98;18.02;;;;;;;8.95;100.00;98793.38;2066226;28;20174;-70
2022/05/28 02:05:41;;;;;;;21.48;19.27;;;;;;;8.98;100.00;98792.00;2065380;28;20205;-70
2022/05/28 02:06:45;;;;;;;24.60;20.00;;;;;;;8.97;100.00;98793.88;2065165;28;20232;-70
2022/05/28 02:07:46;;;;;;;21.05;18.77;;;;;;;8.99;100.00;98797.03;2066285;28;20724;-71
2022/05/28 02:08:49;;;;;;;21.60;19.50;;;;;;;8.98;100.00;98795.44;2066076;28;20189;-70
2022/05/28 02:09:59;;;;;;;22.85;19.15;;;;;;;8.96;100.00;98800.28;2066096;28;20201;-70
2022/05/28 02:11:16;;;;;;;21.67;19.38;;;;;;;8.92;100.00;98801.91;2065423;28;20217;-70
2022/05/28 02:12:24;;;;;;;22.15;19.67;;;;;;;8.89;100.00;98799.84;2059613;28;20193;-70
2022/05/28 02:13:29;;;;;;;22.33;20.02;;;;;;;8.89;100.00;98805.16;2065559;28;20176;-70
2022/05/28 02:14:41;;;;;;;24.13;20.95;;;;;;;8.91;100.00;98804.88;2066371;28;20249;-70
2022/05/28 02:15:46;;;;;;;24.48;20.50;;;;;;;8.90;100.00;98800.63;2065997;28;20181;-70
2022/05/28 02:16:50;;;;;;;25.33;20.25;;;;;;;8.83;100.00;98801.00;2065250;28;20215;-70
2022/05/28 02:17:54;;;;;;;22.75;20.35;;;;;;;8.82;100.00;98796.75;2065260;28;20193;-70
2022/05/28 02:18:56;;;;;;;27.52;20.95;;;;;;;8.80;100.00;98795.50;2065949;28;20197;-70
2022/05/28 02:20:01;;;;;;;23.08;20.55;;;;;;;8.83;100.00;98794.91;2066105;28;20248;-70
2022/05/28 02:21:06;;;;;;;26.15;20.90;;;;;;;8.82;100.00;98796.75;2064793;28;20204;-70
2022/05/28 02:22:11;;;;;;;32.28;21.08;;;;;;;8.84;100.00;98791.94;2065565;28;20631;-70
2022/05/28 02:23:15;;;;;;;28.05;21.77;;;;;;;8.82;100.00;98796.75;2066298;28;20635;-70
2022/05/28 02:24:20;;;;;;;23.15;19.90;;;;;;;8.84;100.00;98796.47;2065355;28;20208;-70
2022/05/28 02:25:28;;;;;;;28.08;21.25;;;;;;;8.87;100.00;98801.22;2065270;28;20201;-70
2022/05/28 02:26:33;;;;;;;26.45;20.63;;;;;;;8.93;100.00;98800.84;2065833;28;20173;-70
2022/05/28 02:27:35;;;;;;;26.75;20.23;;;;;;;8.96;100.00;98796.81;2065212;28;20193;-70
2022/05/28 02:28:36;;;;;;;23.85;20.83;;;;;;;8.96;100.00;98794.94;2057659;28;20209;-70
2022/05/28 02:29:39;;;;;;;24.00;20.20;;;;;;;8.97;100.00;98806.38;2065425;28;20225;-71
2022/05/28 02:30:47;;;;;;;24.13;20.33;;;;;;;8.92;100.00;98793.94;2065122;28;20229;-70
2022/05/28 02:31:51;;;;;;;22.73;20.02;;;;;;;8.97;100.00;98796.53;2065592;28;20197;-70
2022/05/28 02:33:00;;;;;;;28.75;19.90;;;;;;;8.99;100.00;98802.34;2065666;28;20690;-70
2022/05/28 02:34:03;;;;;;;22.67;20.30;;;;;;;8.98;100.00;98806.09;2065931;28;20713;-70
2022/05/28 02:35:04;;;;;;;25.58;21.23;;;;;;;8.99;100.00;98802.34;2066099;28;20189;-70
2022/05/28 02:36:06;;;;;;;27.90;21.08;;;;;;;9.07;100.00;98807.00;2065363;28;20193;-70
2022/05/28 02:37:07;;;;;;;30.20;20.63;;;;;;;9.09;100.00;98809.34;2065998;28;20192;-70
2022/05/28 02:38:11;;;;;;;25.57;21.47;;;;;;;9.13;100.00;98810.38;2065553;28;20211;-70
2022/05/28 02:39:15;;;;;;;22.92;19.15;;;;;;;9.14;100.00;98811.94;2065174;28;20220;-70
2022/05/28 02:40:18;;;;;;;23.85;20.45;;;;;;;9.14;100.00;98800.50;2065375;28;20193;-70
2022/05/28 02:41:21;;;;;;;26.58;20.02;;;;;;;9.12;100.00;98803.47;2066073;28;20598;-70
2022/05/28 02:42:22;;;;;;;32.20;20.92;;;;;;;9.14;100.00;98795.19;2065218;28;20207;-70
2022/05/28 02:43:24;;;;;;;29.10;20.25;;;;;;;9.14;100.00;98801.31;2065338;28;20185;-70
2022/05/28 02:44:25;;;;;;;30.42;20.95;;;;;;;9.14;100.00;98795.19;2066071;28;20193;-70
2022/05/28 02:45:30;;;;;;;23.67;20.73;;;;;;;9.12;100.00;98790.16;2065892;28;20220;-71
2022/05/28 02:46:33;;;;;;;21.30;19.05;;;;;;;9.07;100.00;98787.59;2066106;28;20505;-70
2022/05/28 02:47:35;;;;;;;26.38;19.70;;;;;;;9.05;100.00;98787.88;2065907;28;20561;-70
2022/05/28 02:48:37;;;;;;;23.58;20.80;;;;;;;9.11;100.00;98793.88;2065564;28;20664;-70
2022/05/28 02:49:38;;;;;;;23.17;20.83;;;;;;;9.05;100.00;98790.53;2057479;28;20202;-70
2022/05/28 02:50:39;;;;;;;22.83;20.38;;;;;;;9.08;100.00;98791.81;2065427;28;20263;-70
2022/05/28 02:51:41;;;;;;;23.03;20.03;;;;;;;9.14;100.00;98795.19;2065638;28;20248;-70
2022/05/28 02:52:46;;;;;;;24.48;20.08;;;;;;;9.16;100.00;98795.69;2065178;28;20283;-70
2022/05/28 02:53:49;;;;;;;27.33;19.98;;;;;;;9.19;100.00;98793.22;2065428;28;20547;-70
2022/05/28 02:54:50;;;;;;;23.13;19.42;;;;;;;9.12;100.00;98792.00;2066073;28;20193;-70
2022/05/28 02:55:52;;;;;;;22.60;20.30;;;;;;;9.15;100.00;98794.91;2065812;28;20268;-71
2022/05/28 02:56:53;;;;;;;23.20;20.70;;;;;;;9.20;100.00;98799.31;2065750;28;20224;-70
2022/05/28 02:57:54;;;;;;;22.77;20.37;;;;;;;9.18;100.00;98796.16;2065926;28;20195;-70
2022/05/28 02:58:55;;;;;;;24.75;21.13;;;;;;;9.11;100.00;98798.41;2065857;28;20193;-70
2022/05/28 02:59:57;;;;;;;22.97;20.77;;;;;;;9.10;100.00;98796.84;2065184;28;20236;-70
2022/05/28 03:01:00;;;;;;;23.08;20.75;;;;;;;9.12;100.00;98794.66;2065268;28;20197;-71
2022/05/28 03:02:02;;;;;;;25.38;20.77;;;;;;;9.13;100.00;98798.94;2065800;28;20604;-70
2022/05/28 03:03:03;;;;;;;23.80;21.30;;;;;;;9.14;100.00;98800.50;2065147;28;20212;-70
2022/05/28 03:04:06;;;;;;;23.00;20.60;;;;;;;9.22;100.00;98792.66;2057201;28;20204;-70
2022/05/28 03:05:07;;;;;;;28.67;22.27;;;;;;;9.19;100.00;98800.41;2065336;28;20200;-70
2022/05/28 03:06:09;;;;;;;28.23;22.27;;;;;;;9.23;100.00;98798.75;2065403;28;20276;-70
2022/05/28 03:07:13;;;;;;;27.20;22.20;;;;;;;9.25;100.00;98808.03;2066077;28;20288;-70
2022/05/28 03:08:16;;;;;;;24.95;21.83;;;;;;;9.23;100.00;98796.09;2065146;28;20730;-70
2022/05/28 03:09:16;;;;;;;31.52;22.88;;;;;;;9.21;100.00;98800.91;2057209;28;20224;-71
2022/05/28 03:10:18;;;;;;;29.60;22.37;;;;;;;9.30;100.00;98793.84;2065218;28;20182;-70
2022/05/28 03:11:19;;;;;;;29.98;23.35;;;;;;;9.41;100.00;98797.09;2065080;28;20197;-70
2022/05/28 03:12:21;;;;;;;34.05;22.83;;;;;;;9.44;100.00;98794.63;2065196;28;20193;-70
2022/05/28 03:13:22;;;;;;;32.55;23.85;;;;;;;9.43;100.00;98793.06;2065720;28;20200;-70
2022/05/28 03:14:25;;;;;;;29.93;23.20;;;;;;;9.40;100.00;98801.66;2065768;28;20191;-71
2022/05/28 03:15:26;;;;;;;27.83;23.38;;;;;;;9.43;100.00;98802.91;2065749;28;20193;-70
2022/05/28 03:16:29;;;;;;;29.60;23.37;;;;;;;9.41;100.00;98794.44;2065903;28;20308;-70
2022/05/28 03:17:30;;;;;;;34.60;24.33;;;;;;;9.48;100.00;98797.50;2065818;28;20204;-70
2022/05/28 03:18:32;;;;;;;30.13;23.90;;;;;;;9.50;100.00;98788.13;2065882;28;20279;-71
2022/05/28 03:19:32;;;;;;;31.02;24.05;;;;;;;9.46;100.00;98797.78;2065844;28;20272;-70
2022/05/28 03:20:34;;;;;;;34.63;23.50;;;;;;;9.48;100.00;98795.63;2065728;28;20675;-70
2022/05/28 03:21:36;;;;;;;29.92;22.33;;;;;;;9.53;100.00;98790.19;2065469;28;20244;-71
2022/05/28 03:22:38;;;;;;;31.05;23.15;;;;;;;9.52;100.00;98785.97;2065153;28;20197;-71
2022/05/28 03:23:39;;;;;;;35.75;25.17;;;;;;;9.58;100.00;98784.00;2065257;28;20217;-70
2022/05/28 03:24:40;;;;;;;30.23;23.37;;;;;;;9.58;100.00;98794.66;2065238;28;20193;-71
2022/05/28 03:25:41;;;;;;;34.13;24.13;;;;;;;9.59;100.00;98786.38;2064735;28;20209;-71
2022/05/28 03:26:45;;;;;;;31.40;23.77;;;;;;;9.57;100.00;98783.22;2065251;28;20193;-70
2022/05/28 03:27:46;;;;;;;29.42;23.92;;;;;;;9.52;100.00;98788.63;2065925;28;20193;-70
2022/05/28 03:28:50;;;;;;;27.15;22.83;;;;;;;9.57;100.00;98793.06;2065728;28;20217;-71
2022/05/28 03:29:50;;;;;;;26.60;22.55;;;;;;;9.63;100.00;98795.31;2065611;28;20209;-70
2022/05/28 03:30:52;;;;;;;30.40;22.90;;;;;;;9.62;100.00;98793.75;2066962;28;20696;-70
2022/05/28 03:31:54;;;;;;;28.83;22.75;;;;;;;9.65;100.00;98794.28;2067259;28;20250;-71
2022/05/28 03:32:56;;;;;;;26.90;22.42;;;;;;;9.69;100.00;98801.34;2067433;28;20213;-70
2022/05/28 03:33:59;;;;;;;31.55;22.90;;;;;;;9.71;100.00;98806.38;2067429;28;20193;-70
2022/05/28 03:35:01;;;;;;;29.33;23.55;;;;;;;9.74;100.00;98803.16;2067163;28;20200;-70
2022/05/28 03:36:03;;;;;;;26.27;22.98;;;;;;;9.76;100.00;98799.09;2066727;28;20576;-70
2022/05/28 03:37:05;;;;;;;28.30;24.35;;;;;;;9.76;100.00;98795.63;2067159;28;20209;-70
2022/05/28 03:38:06;;;;;;;31.38;23.63;;;;;;;9.73;100.00;98791.69;2067312;28;20208;-70
2022/05/28 03:39:08;;;;;;;32.72;23.88;;;;;;;9.73;100.00;98790.88;2067273;28;20552;-70
2022/05/28 03:40:10;;;;;;;27.08;23.27;;;;;;;9.71;100.00;98788.53;2067388;28;20191;-71
2022/05/28 03:41:12;;;;;;;26.88;22.83;;;;;;;9.71;100.00;98793.84;2067316;28;20686;-70
2022/05/28 03:42:14;;;;;;;27.90;23.20;;;;;;;9.74;100.00;98784.50;2067173;28;20197;-70
2022/05/28 03:43:16;;;;;;;27.17;23.92;;;;;;;9.69;100.00;98792.56;2066452;28;20617;-71
2022/05/28 03:44:17;;;;;;;29.85;24.10;;;;;;;9.71;100.00;98796.50;2066582;28;20196;-71
2022/05/28 03:45:19;;;;;;;25.70;22.87;;;;;;;9.73;100.00;98801.53;2067374;28;20275;-70
2022/05/28 03:46:23;;;;;;;29.77;23.92;;;;;;;9.75;100.00;98797.50;2066695;28;20328;-69
2022/05/28 03:47:27;;;;;;;28.27;23.40;;;;;;;9.72;100.00;98799.97;2066540;28;20189;-71
2022/05/28 03:48:34;;;;;;;28.40;22.23;;;;;;;9.75;100.00;98802.06;2067290;28;20173;-70
2022/05/28 03:49:36;;;;;;;26.42;23.35;;;;;;;9.73;100.00;98802.34;2067357;28;20180;-69
2022/05/28 03:50:38;;;;;;;30.52;23.40;;;;;;;9.79;100.00;98795.81;2066413;28;20197;-69
2022/05/28 03:51:38;;;;;;;33.72;25.40;;;;;;;9.82;100.00;98802.44;2066210;28;20229;-69
2022/05/28 03:52:40;;;;;;;33.93;27.90;;;;;;;9.78;100.00;98793.47;2067047;28;20196;-69
2022/05/28 03:53:41;;;;;;;40.80;28.63;;;;;;;9.75;100.00;98794.06;2067250;28;20193;-70
2022/05/28 03:54:47;;;;;;;34.43;28.37;;;;;;;9.80;100.00;98788.63;2066380;28;20225;-69
2022/05/28 03:55:50;;;;;;;32.72;28.38;;;;;;;9.71;100.00;98785.84;2066766;28;20541;-69
2022/05/28 03:56:55;;;;;;;35.60;28.48;;;;;;;9.76;100.00;98784.97;2066520;28;20240;-69
2022/05/28 03:57:55;;;;;;;33.20;27.80;;;;;;;9.79;100.00;98789.72;2066548;28;20185;-69
2022/05/28 03:58:57;;;;;;;37.80;28.17;;;;;;;9.86;100.00;98798.88;2066382;28;20241;-69
2022/05/28 03:59:58;;;;;;;35.30;28.98;;;;;;;9.82;100.00;98791.78;2066440;28;20197;-69
2022/05/28 04:01:00;;;;;;;34.05;27.88;;;;;;;9.80;100.00;98786.75;2067031;28;20193;-69
2022/05/28 04:02:02;;;;;;;32.97;28.23;;;;;;;9.87;100.00;98786.34;2067236;28;20552;-69
2022/05/28 04:03:05;;;;;;;33.15;28.77;;;;;;;9.83;100.00;98782.72;2066357;28;20615;-69
2022/05/28 04:04:06;;;;;;;34.13;28.52;;;;;;;9.73;100.00;98782.88;2066344;28;20201;-69
2022/05/28 04:05:09;;;;;;;30.90;27.67;;;;;;;9.62;100.00;98784.97;2066417;28;20221;-69
2022/05/28 04:06:10;;;;;;;31.15;27.75;;;;;;;9.58;100.00;98776.00;2066547;28;20196;-69
2022/05/28 04:07:13;;;;;;;31.77;28.38;;;;;;;9.58;100.00;98776.78;2067056;28;20189;-69
2022/05/28 04:08:14;;;;;;;31.67;28.25;;;;;;;9.62;100.00;98776.97;2067069;28;20190;-69
2022/05/28 04:09:16;;;;;;;32.00;27.13;;;;;;;9.63;100.00;98765.25;2067068;28;20663;-69
2022/05/28 04:10:17;;;;;;;34.92;27.35;;;;;;;9.64;100.00;98774.81;2066965;28;20196;-69
2022/05/28 04:11:19;;;;;;;30.10;26.90;;;;;;;9.61;100.00;98765.53;2066310;28;20196;-70
2022/05/28 04:12:20;;;;;;;36.47;27.83;;;;;;;9.72;100.00;98774.13;2066408;28;20193;-69
2022/05/28 04:13:21;;;;;;;30.17;27.07;;;;;;;9.76;100.00;98769.00;2066248;28;20248;-69
2022/05/28 04:14:22;;;;;;;28.80;25.77;;;;;;;9.81;100.00;98775.00;2066183;28;20212;-69
2022/05/28 04:15:24;;;;;;;34.30;26.57;;;;;;;9.84;100.00;98771.75;2066330;28;20276;-69
2022/05/28 04:16:29;;;;;;;30.20;27.00;;;;;;;9.81;100.00;98771.53;2066253;28;20205;-69
2022/05/28 04:17:30;;;;;;;28.75;25.83;;;;;;;9.79;100.00;98766.50;2058699;28;20280;-69
2022/05/28 04:18:33;;;;;;;29.00;25.42;;;;;;;9.85;100.00;98777.88;2066338;28;20201;-69
2022/05/28 04:19:35;;;;;;;28.67;25.58;;;;;;;9.85;100.00;98773.31;2066219;28;20196;-69
2022/05/28 04:20:35;;;;;;;27.50;24.67;;;;;;;9.84;100.00;98765.63;2058225;28;20205;-70
2022/05/28 04:21:39;;;;;;;27.47;24.40;;;;;;;9.90;100.00;98775.09;2065897;28;20212;-69
2022/05/28 04:22:41;;;;;;;28.90;25.15;;;;;;;9.89;100.00;98778.84;2066189;28;20240;-69
2022/05/28 04:23:44;;;;;;;27.90;23.23;;;;;;;9.91;100.00;98772.16;2058218;28;20285;-70
2022/05/28 04:24:48;;;;;;;27.38;24.23;;;;;;;9.93;100.00;98777.16;2066577;28;20553;-69
2022/05/28 04:25:50;;;;;;;25.87;23.10;;;;;;;10.01;100.00;98765.03;2066994;28;20185;-69
2022/05/28 04:26:51;;;;;;;33.33;23.42;;;;;;;10.03;100.00;98768.97;2066144;28;20667;-69
2022/05/28 04:27:52;;;;;;;26.00;23.30;;;;;;;10.03;100.00;98770.84;2058377;28;20636;-69
2022/05/28 04:28:55;;;;;;;26.33;23.48;;;;;;;10.07;100.00;98777.91;2058070;28;20664;-70
2022/05/28 04:30:00;;;;;;;32.60;23.30;;;;;;;10.09;100.00;98775.78;2066282;28;20238;-69
2022/05/28 04:31:01;;;;;;;26.20;23.17;;;;;;;10.13;100.00;98768.72;2065960;28;20232;-69
2022/05/28 04:32:03;;;;;;;25.23;22.83;;;;;;;10.18;100.00;98776.63;2058118;28;20691;-70
2022/05/28 04:33:04;;;;;;;26.13;23.23;;;;;;;10.19;100.00;98775.53;2066260;28;20188;-69
2022/05/28 04:34:07;;;;;;;26.33;23.30;;;;;;;10.23;100.00;98777.63;2066134;28;20296;-69
2022/05/28 04:35:08;;;;;;;27.52;23.42;;;;;;;10.26;100.00;98777.03;2058178;28;20194;-69
2022/05/28 04:36:11;;;;;;;25.35;22.83;;;;;;;10.30;100.00;98770.00;2065836;28;20193;-69
2022/05/28 04:37:12;;;;;;;25.48;22.73;;;;;;;10.32;100.00;98770.50;2066368;28;20322;-69
2022/05/28 04:38:13;;;;;;;25.73;23.13;;;;;;;10.32;100.00;98775.81;2066400;28;20652;-69
2022/05/28 04:39:14;;;;;;;26.70;23.63;;;;;;;10.25;100.00;98786.09;2066007;28;20201;-70
2022/05/28 04:40:16;;;;;;;25.53;23.03;;;;;;;10.29;100.00;98779.88;2066222;28;20220;-69
2022/05/28 04:41:17;;;;;;;24.75;22.25;;;;;;;10.29;100.00;98779.09;2065721;28;20200;-69
2022/05/28 04:42:21;;;;;;;25.77;23.13;;;;;;;10.34;100.00;98781.66;2066165;28;20185;-69
2022/05/28 04:43:22;;;;;;;25.20;22.50;;;;;;;10.34;100.00;98779.00;2066910;28;20495;-69
2022/05/28 04:44:26;;;;;;;24.80;22.20;;;;;;;10.36;100.00;98782.16;2066775;28;20185;-69
2022/05/28 04:45:28;;;;;;;25.25;22.20;;;;;;;10.34;100.00;98784.34;2066847;28;20188;-69
2022/05/28 04:46:29;;;;;;;24.27;22.03;;;;;;;10.34;100.00;98789.66;2066148;28;20292;-70
2022/05/28 04:47:30;;;;;;;25.67;22.58;;;;;;;10.28;100.00;98780.97;2066136;28;20193;-69
2022/05/28 04:48:32;;;;;;;25.33;22.73;;;;;;;10.23;100.00;98782.97;2066754;28;20281;-68
2022/05/28 04:49:36;;;;;;;24.23;21.83;;;;;;;10.28;100.00;98780.19;2065964;28;20586;-69
2022/05/28 04:50:39;;;;;;;23.52;21.30;;;;;;;10.29;100.00;98782.56;2066098;28;20224;-69